createdAt,value
2022-12-29T00:01:59.911Z,97814.94
2022-12-29T00:04:26.530Z,97805.81
2022-12-29T00:06:53.694Z,97807.06
2022-12-29T00:09:20.331Z,97811.25
2022-12-29T00:11:46.995Z,97805.41
2022-12-29T00:14:32.642Z,97808.47
2022-12-29T00:16:59.165Z,97809.66
2022-12-29T00:19:44.651Z,97795.28
2022-12-29T00:22:31.277Z,97804.19
2022-12-29T00:25:16.380Z,97800.97
2022-12-29T00:28:07.839Z,97794.09
2022-12-29T00:30:55.109Z,97792.84
2022-12-29T00:33:44.845Z,97799.97
2022-12-29T00:36:26.673Z,97796.31
2022-12-29T00:39:18.849Z,97787.66
2022-12-29T00:42:04.039Z,97773.47
2022-12-29T00:44:30.638Z,97769.44
2022-12-29T00:46:57.312Z,97774.50
2022-12-29T00:49:33.118Z,97767.00
2022-12-29T00:52:10.109Z,97769.06
2022-12-29T00:54:38.724Z,97763.78
2022-12-29T00:57:08.397Z,97766.00
2022-12-29T00:59:42.549Z,97756.28
2022-12-29T01:02:11.042Z,97767.84
2022-12-29T01:04:38.239Z,97762.97
2022-12-29T01:07:05.320Z,97775.53
2022-12-29T01:09:51.471Z,97761.97
2022-12-29T01:12:38.201Z,97750.03
2022-12-29T01:15:05.263Z,97773.94
2022-12-29T01:17:31.789Z,97753.28
2022-12-29T01:19:58.269Z,97741.31
2022-12-29T01:22:24.753Z,97751.66
2022-12-29T01:24:51.301Z,97729.56
2022-12-29T01:27:17.929Z,97751.03
2022-12-29T01:29:44.777Z,97740.94
2022-12-29T01:32:11.326Z,97745.78
2022-12-29T01:34:38.907Z,97748.00
2022-12-29T01:37:05.390Z,97752.28
2022-12-29T01:39:31.903Z,97749.84
2022-12-29T01:41:58.489Z,97758.16
2022-12-29T01:44:53.128Z,97752.44
2022-12-29T01:47:28.389Z,97756.31
2022-12-29T01:49:58.724Z,97756.31
2022-12-29T01:52:30.724Z,97743.13
2022-12-29T01:54:59.062Z,97751.25
2022-12-29T01:57:32.516Z,97751.03
2022-12-29T02:00:13.449Z,97743.34
2022-12-29T02:02:53.043Z,97749.47
2022-12-29T02:05:34.893Z,97751.88
2022-12-29T02:08:02.887Z,97733.63
2022-12-29T02:10:32.693Z,97725.72
2022-12-29T02:13:00.431Z,97727.38
2022-12-29T02:15:35.911Z,97728.19
2022-12-29T02:18:15.225Z,97717.41
2022-12-29T02:21:12.993Z,97725.72
2022-12-29T02:24:17.293Z,97710.50
2022-12-29T02:27:23.044Z,97709.47
2022-12-29T02:29:58.890Z,97715.19
2022-12-29T02:32:40.572Z,97712.72
2022-12-29T02:35:38.489Z,97706.25
2022-12-29T02:38:41.689Z,97703.97
2022-12-29T02:41:39.018Z,97712.91
2022-12-29T02:44:16.398Z,97698.72
2022-12-29T02:46:52.942Z,97701.16
2022-12-29T02:49:34.891Z,97685.34
2022-12-29T02:52:07.672Z,97701.75
2022-12-29T02:54:43.231Z,97688.34
2022-12-29T02:57:23.381Z,97684.53
2022-12-29T02:59:55.265Z,97687.13
2022-12-29T03:02:30.963Z,97680.88
2022-12-29T03:05:01.087Z,97695.66
2022-12-29T03:07:36.581Z,97678.41
2022-12-29T03:10:14.999Z,97672.19
2022-12-29T03:13:32.409Z,97666.88
2022-12-29T03:16:19.695Z,97658.97
2022-12-29T03:19:07.975Z,97658.16
2022-12-29T03:22:03.581Z,97654.94
2022-12-29T03:24:42.715Z,97659.16
2022-12-29T03:27:14.295Z,97665.44
2022-12-29T03:29:47.573Z,97652.47
2022-12-29T03:32:17.443Z,97654.53
2022-12-29T03:34:46.052Z,97647.63
2022-12-29T03:37:18.878Z,97649.84
2022-12-29T03:39:46.325Z,97658.78
2022-12-29T03:42:18.584Z,97659.16
2022-12-29T03:44:46.299Z,97654.72
2022-12-29T03:47:16.157Z,97653.50
2022-12-29T03:49:45.800Z,97651.88
2022-12-29T03:52:12.586Z,97653.66
2022-12-29T03:54:43.307Z,97649.22
2022-12-29T03:57:11.880Z,97652.25
2022-12-29T03:59:55.475Z,97661.34
2022-12-29T04:02:22.407Z,97655.69
2022-12-29T04:04:49.132Z,97649.25
2022-12-29T04:07:15.915Z,97651.25
2022-12-29T04:09:43.144Z,97625.91
2022-12-29T04:12:15.446Z,97644.34
2022-12-29T04:14:42.164Z,97650.44
2022-12-29T04:17:08.838Z,97643.97
2022-12-29T04:19:35.501Z,97651.25
2022-12-29T04:22:02.105Z,97642.75
2022-12-29T04:24:29.684Z,97634.63
2022-12-29T04:26:56.284Z,97644.09
2022-12-29T04:29:43.059Z,97645.13
2022-12-29T04:32:09.570Z,97642.00
2022-12-29T04:34:40.953Z,97635.59
2022-12-29T04:37:07.482Z,97644.09
2022-12-29T04:39:35.345Z,97621.78
2022-12-29T04:42:03.098Z,97629.22
2022-12-29T04:44:30.041Z,97627.44
2022-12-29T04:47:10.506Z,97636.09
2022-12-29T04:49:55.396Z,97631.59
2022-12-29T04:52:38.160Z,97638.31
2022-12-29T04:55:07.795Z,97652.31
2022-12-29T04:57:34.624Z,97639.50
2022-12-29T05:00:02.431Z,97643.72
2022-12-29T05:02:29.107Z,97643.31
2022-12-29T05:04:57.182Z,97648.19
2022-12-29T05:07:24.315Z,97645.88
2022-12-29T05:09:51.058Z,97646.13
2022-12-29T05:12:17.590Z,97641.22
2022-12-29T05:14:55.091Z,97640.81
2022-12-29T05:17:21.679Z,97661.72
2022-12-29T05:19:48.310Z,97649.94
2022-12-29T05:22:15.571Z,97622.69
2022-12-29T05:24:44.008Z,97647.47
2022-12-29T05:27:11.249Z,97648.06
2022-12-29T05:29:48.730Z,97646.44
2022-12-29T05:32:15.531Z,97639.81
2022-12-29T05:34:43.077Z,97646.13
2022-12-29T05:37:09.853Z,97662.31
2022-12-29T05:39:38.011Z,97644.66
2022-12-29T05:42:05.947Z,97661.94
2022-12-29T05:44:56.021Z,97657.94
2022-12-29T05:47:41.205Z,97655.16
2022-12-29T05:50:14.053Z,97652.94
2022-12-29T05:52:59.344Z,97633.84
2022-12-29T05:55:26.236Z,97643.50
2022-12-29T05:57:54.467Z,97619.38
2022-12-29T06:00:21.111Z,97637.59
2022-12-29T06:02:48.056Z,97608.69
2022-12-29T06:05:16.598Z,97613.53
2022-12-29T06:07:45.794Z,97613.94
2022-12-29T06:10:14.921Z,97609.44
2022-12-29T06:12:49.597Z,97593.78
2022-12-29T06:15:16.807Z,97585.34
2022-12-29T06:17:45.694Z,97578.22
2022-12-29T06:20:12.278Z,97586.25
2022-12-29T06:22:39.355Z,97596.50
2022-12-29T06:25:06.652Z,97586.31
2022-12-29T06:27:34.815Z,97597.88
2022-12-29T06:30:01.435Z,97602.31
2022-12-29T06:32:28.573Z,97613.66
2022-12-29T06:35:00.592Z,97607.81
2022-12-29T06:37:27.286Z,97605.19
2022-12-29T06:39:53.869Z,97611.66
2022-12-29T06:42:21.090Z,97627.09
2022-12-29T06:45:06.358Z,97607.84
2022-12-29T06:47:34.076Z,97607.72
2022-12-29T06:50:00.805Z,97626.06
2022-12-29T06:52:27.405Z,97624.81
2022-12-29T06:54:54.008Z,97622.19
2022-12-29T06:57:20.551Z,97617.25
2022-12-29T06:59:47.216Z,97621.47
2022-12-29T07:02:15.931Z,97622.88
2022-12-29T07:04:42.913Z,97616.41
2022-12-29T07:07:09.463Z,97616.69
2022-12-29T07:09:35.993Z,97625.28
2022-12-29T07:12:02.716Z,97633.09
2022-12-29T07:14:29.517Z,97636.69
2022-12-29T07:16:56.164Z,97641.44
2022-12-29T07:19:22.751Z,97634.88
2022-12-29T07:21:49.301Z,97639.69
2022-12-29T07:24:15.815Z,97621.31
2022-12-29T07:26:42.774Z,97646.09
2022-12-29T07:29:09.435Z,97644.25
2022-12-29T07:31:36.026Z,97655.34
2022-12-29T07:34:02.594Z,97647.38
2022-12-29T07:36:34.162Z,97655.69
2022-12-29T07:39:01.582Z,97664.97
2022-12-29T07:41:28.160Z,97670.66
2022-12-29T07:43:54.750Z,97664.94
2022-12-29T07:46:56.002Z,97664.13
2022-12-29T07:49:23.966Z,97672.06
2022-12-29T07:51:50.486Z,97669.59
2022-12-29T07:54:19.288Z,97685.97
2022-12-29T07:56:46.294Z,97679.22
2022-12-29T07:59:15.721Z,97671.16
2022-12-29T08:01:42.385Z,97671.72
2022-12-29T08:04:09.280Z,97676.75
2022-12-29T08:06:36.061Z,97686.09
2022-12-29T08:09:09.853Z,97691.59
2022-12-29T08:11:39.592Z,97669.47
2022-12-29T08:14:06.180Z,97672.50
2022-12-29T08:16:33.478Z,97684.88
2022-12-29T08:19:00.466Z,97670.22
2022-12-29T08:21:28.858Z,97681.75
2022-12-29T08:23:55.706Z,97688.78
2022-12-29T08:26:22.841Z,97691.25
2022-12-29T08:28:53.659Z,97693.25
2022-12-29T08:31:20.311Z,97690.56
2022-12-29T08:33:46.932Z,97702.75
2022-12-29T08:36:13.601Z,97703.78
2022-12-29T08:38:40.070Z,97689.78
2022-12-29T08:41:06.577Z,97718.03
2022-12-29T08:43:33.105Z,97717.03
2022-12-29T08:46:00.346Z,97698.22
2022-12-29T08:48:27.804Z,97705.13
2022-12-29T08:50:54.356Z,97702.09
2022-12-29T08:53:21.626Z,97708.25
2022-12-29T08:55:58.067Z,97703.13
2022-12-29T08:58:29.230Z,97704.75
2022-12-29T09:00:57.851Z,97704.91
2022-12-29T09:03:54.606Z,97710.19
2022-12-29T09:06:11.932Z,97701.69
2022-12-29T09:08:38.454Z,97704.91
2022-12-29T09:11:10.677Z,97713.75
2022-12-29T09:13:37.636Z,97723.72
2022-12-29T09:16:04.983Z,97729.00
2022-12-29T09:18:31.710Z,97730.41
2022-12-29T09:20:59.913Z,97719.72
2022-12-29T09:23:27.141Z,97747.59
2022-12-29T09:25:55.417Z,97734.53
2022-12-29T09:28:23.403Z,97732.22
2022-12-29T09:30:50.759Z,97750.94
2022-12-29T09:33:17.715Z,97754.06
2022-12-29T09:35:45.839Z,97751.22
2022-12-29T09:38:12.970Z,97751.44
2022-12-29T09:40:40.508Z,97737.44
2022-12-29T09:43:13.080Z,97765.28
2022-12-29T09:45:45.483Z,97764.41
2022-12-29T09:48:23.908Z,97763.34
2022-12-29T09:50:55.884Z,97762.81
2022-12-29T09:53:28.382Z,97761.34
2022-12-29T09:55:59.038Z,97764.84
2022-12-29T09:58:37.385Z,97762.84
2022-12-29T10:01:45.490Z,97775.66
2022-12-29T10:04:12.226Z,97757.69
2022-12-29T10:07:11.372Z,97753.59
2022-12-29T10:09:31.415Z,97760.38
2022-12-29T10:12:20.084Z,97750.22
2022-12-29T10:15:11.541Z,97750.63
2022-12-29T10:17:49.426Z,97763.41
2022-12-29T10:20:23.023Z,97758.72
2022-12-29T10:23:42.813Z,97764.00
2022-12-29T10:26:20.684Z,97773.78
2022-12-29T10:28:54.105Z,97764.84
2022-12-29T10:31:24.450Z,97790.59
2022-12-29T10:33:58.128Z,97799.44
2022-12-29T10:36:36.698Z,97790.44
2022-12-29T10:39:20.271Z,97792.94
2022-12-29T10:41:52.865Z,97788.53
2022-12-29T10:44:20.746Z,97794.00
2022-12-29T10:47:03.191Z,97778.78
2022-12-29T10:49:32.040Z,97788.09
2022-12-29T10:52:03.353Z,97782.00
2022-12-29T10:54:51.730Z,97787.06
2022-12-29T10:57:40.899Z,97794.75
2022-12-29T11:00:21.835Z,97800.41
2022-12-29T11:03:24.499Z,97796.34
2022-12-29T11:06:13.781Z,97813.00
2022-12-29T11:08:52.361Z,97810.03
2022-12-29T11:11:49.556Z,97812.84
2022-12-29T11:14:21.258Z,97811.81
2022-12-29T11:16:59.194Z,97810.59
2022-12-29T11:19:40.483Z,97811.81
2022-12-29T11:22:34.951Z,97812.22
2022-12-29T11:25:13.626Z,97821.78
2022-12-29T11:27:40.828Z,97817.72
2022-12-29T11:30:25.085Z,97822.34
2022-12-29T11:32:53.817Z,97819.22
2022-12-29T11:35:39.185Z,97818.50
2022-12-29T11:38:17.880Z,97817.56
2022-12-29T11:40:44.387Z,97815.81
2022-12-29T11:43:27.733Z,97814.09
2022-12-29T11:45:54.916Z,97805.56
2022-12-29T11:48:22.255Z,97814.34
2022-12-29T11:50:59.297Z,97815.56
2022-12-29T11:53:48.017Z,97808.84
2022-12-29T11:56:18.090Z,97810.72
2022-12-29T11:58:45.111Z,97795.75
2022-12-29T12:01:20.787Z,97794.72
2022-12-29T12:04:02.811Z,97800.16
2022-12-29T12:06:33.704Z,97809.25
2022-12-29T12:09:11.535Z,97805.72
2022-12-29T12:11:43.166Z,97803.72
2022-12-29T12:14:24.634Z,97806.28
2022-12-29T12:17:18.948Z,97789.44
2022-12-29T12:20:06.589Z,97794.47
2022-12-29T12:22:38.487Z,97794.47
2022-12-29T12:25:21.764Z,97801.44
2022-12-29T12:28:01.772Z,97802.66
2022-12-29T12:30:36.526Z,97794.34
2022-12-29T12:33:32.164Z,97789.34
2022-12-29T12:36:23.081Z,97779.41
2022-12-29T12:38:55.629Z,97778.84
2022-12-29T12:41:57.630Z,97767.44
2022-12-29T12:44:35.626Z,97767.03
2022-12-29T12:47:08.267Z,97757.69
2022-12-29T12:49:57.457Z,97775.75
2022-12-29T12:52:42.765Z,97771.56
2022-12-29T12:55:36.552Z,97774.25
2022-12-29T12:58:14.243Z,97779.47
2022-12-29T13:01:02.507Z,97778.34
2022-12-29T13:03:44.418Z,97781.19
2022-12-29T13:06:29.788Z,97777.00
2022-12-29T13:09:17.969Z,97779.81
2022-12-29T13:11:59.830Z,97780.44
2022-12-29T13:14:47.458Z,97774.63
2022-12-29T13:17:43.182Z,97772.97
2022-12-29T13:20:48.144Z,97773.31
2022-12-29T13:23:33.391Z,97769.94
2022-12-29T13:26:22.551Z,97776.06
2022-12-29T13:29:07.217Z,97772.25
2022-12-29T13:31:44.774Z,97769.06
2022-12-29T13:34:41.669Z,97781.22
2022-12-29T13:37:17.494Z,97773.97
2022-12-29T13:39:52.331Z,97780.13
2022-12-29T13:42:20.548Z,97779.09
2022-12-29T13:45:05.584Z,97781.56
2022-12-29T13:47:45.257Z,97770.66
2022-12-29T13:50:18.330Z,97779.38
2022-12-29T13:52:44.821Z,97792.16
2022-12-29T13:55:36.158Z,97794.38
2022-12-29T13:58:17.943Z,97796.59
2022-12-29T14:00:58.508Z,97793.78
2022-12-29T14:03:39.849Z,97791.16
2022-12-29T14:06:20.216Z,97789.72
2022-12-29T14:08:51.475Z,97792.31
2022-12-29T14:11:22.310Z,97803.31
2022-12-29T14:13:49.774Z,97806.34
2022-12-29T14:16:34.440Z,97779.38
2022-12-29T14:19:39.309Z,97783.22
2022-12-29T14:22:06.750Z,97808.78
2022-12-29T14:24:36.428Z,97803.75
2022-12-29T14:27:12.707Z,97818.91
2022-12-29T14:29:39.288Z,97808.59
2022-12-29T14:32:27.951Z,97818.72
2022-12-29T14:35:38.831Z,97819.09
2022-12-29T14:38:17.891Z,97818.88
2022-12-29T14:40:45.038Z,97833.25
2022-12-29T14:43:22.639Z,97825.38
2022-12-29T14:46:01.417Z,97823.31
2022-12-29T14:48:39.738Z,97829.59
2022-12-29T14:51:30.214Z,97826.16
2022-12-29T14:53:56.975Z,97817.03
2022-12-29T14:56:29.842Z,97836.06
2022-12-29T14:59:03.853Z,97833.41
2022-12-29T15:01:33.546Z,97833.88
2022-12-29T15:04:13.953Z,97849.66
2022-12-29T15:06:42.842Z,97862.00
2022-12-29T15:09:31.417Z,97863.41
2022-12-29T15:12:30.612Z,97866.84
2022-12-29T15:15:01.354Z,97858.13
2022-12-29T15:17:30.403Z,97862.19
2022-12-29T15:19:59.310Z,97872.06
2022-12-29T15:22:26.821Z,97873.47
2022-12-29T15:24:55.223Z,97877.72
2022-12-29T15:27:25.110Z,97881.56
2022-12-29T15:30:05.172Z,97880.78
2022-12-29T15:32:43.238Z,97873.66
2022-12-29T15:35:27.191Z,97873.44
2022-12-29T15:37:53.832Z,97882.91
2022-12-29T15:40:29.876Z,97893.69
2022-12-29T15:43:16.028Z,97887.44
2022-12-29T15:45:42.883Z,97905.78
2022-12-29T15:48:22.459Z,97902.72
2022-12-29T15:50:49.671Z,97903.97
2022-12-29T15:53:25.754Z,97904.56
2022-12-29T15:55:54.965Z,97909.00
2022-12-29T15:58:28.077Z,97913.66
2022-12-29T16:01:00.675Z,97908.03
2022-12-29T16:03:30.895Z,97900.69
2022-12-29T16:06:09.600Z,97907.97
2022-12-29T16:08:39.157Z,97914.50
2022-12-29T16:11:25.092Z,97915.31
2022-12-29T16:13:53.866Z,97920.19
2022-12-29T16:16:25.928Z,97929.31
2022-12-29T16:18:57.674Z,97927.88
2022-12-29T16:21:29.552Z,97916.75
2022-12-29T16:24:02.454Z,97920.97
2022-12-29T16:26:29.721Z,97921.72
2022-12-29T16:28:59.307Z,97924.41
2022-12-29T16:31:38.341Z,97939.53
2022-12-29T16:34:22.458Z,97941.59
2022-12-29T16:37:05.700Z,97948.69
2022-12-29T16:39:36.019Z,97952.91
2022-12-29T16:42:54.708Z,97945.03
2022-12-29T16:45:21.606Z,97949.53
2022-12-29T16:48:08.356Z,97957.00
2022-12-29T16:50:36.891Z,97960.59
2022-12-29T16:53:05.538Z,97959.19
2022-12-29T16:55:33.226Z,97967.09
2022-12-29T16:58:00.744Z,97952.72
2022-12-29T17:00:30.463Z,97966.44
2022-12-29T17:03:00.136Z,97966.84
2022-12-29T17:05:26.928Z,97953.44
2022-12-29T17:07:53.893Z,97950.59
2022-12-29T17:10:20.504Z,97947.97
2022-12-29T17:12:49.380Z,97957.03
2022-12-29T17:15:26.018Z,97949.59
2022-12-29T17:17:56.422Z,97957.97
2022-12-29T17:20:27.865Z,97959.22
2022-12-29T17:22:54.875Z,97958.38
2022-12-29T17:25:27.347Z,97948.03
2022-12-29T17:28:00.006Z,97956.50
2022-12-29T17:30:33.510Z,97954.75
2022-12-29T17:33:13.306Z,97962.69
2022-12-29T17:35:39.940Z,97952.16
2022-12-29T17:38:17.235Z,97952.16
2022-12-29T17:40:44.088Z,97947.44
2022-12-29T17:43:14.204Z,97952.69
2022-12-29T17:45:42.027Z,97952.31
2022-12-29T17:48:13.395Z,97972.13
2022-12-29T17:50:40.886Z,97963.66
2022-12-29T17:53:12.835Z,97962.41
2022-12-29T17:55:40.071Z,97963.53
2022-12-29T17:58:24.699Z,97967.72
2022-12-29T18:00:57.199Z,97970.53
2022-12-29T18:03:41.192Z,97965.00
2022-12-29T18:06:13.575Z,97978.50
2022-12-29T18:08:42.131Z,97971.22
2022-12-29T18:11:22.417Z,97960.91
2022-12-29T18:13:49.431Z,97968.47
2022-12-29T18:16:16.992Z,97969.69
2022-12-29T18:18:43.955Z,97966.28
2022-12-29T18:21:17.786Z,97973.16
2022-12-29T18:23:44.833Z,97968.25
2022-12-29T18:26:28.682Z,97968.13
2022-12-29T18:28:56.771Z,97970.69
2022-12-29T18:31:26.415Z,97962.84
2022-12-29T18:33:54.593Z,97973.50
2022-12-29T18:36:22.480Z,97979.56
2022-12-29T18:38:50.735Z,97977.31
2022-12-29T18:41:32.573Z,97977.38
2022-12-29T18:44:00.097Z,97976.75
2022-12-29T18:46:41.268Z,97963.00
2022-12-29T18:49:09.020Z,97974.34
2022-12-29T18:51:36.443Z,97968.84
2022-12-29T18:54:07.692Z,97969.66
2022-12-29T18:56:34.787Z,97974.91
2022-12-29T18:59:01.606Z,97963.97
2022-12-29T19:01:28.762Z,97976.78
2022-12-29T19:03:55.775Z,97979.75
2022-12-29T19:06:41.637Z,97971.53
2022-12-29T19:09:09.019Z,97970.09
2022-12-29T19:11:35.847Z,97977.56
2022-12-29T19:14:02.791Z,97983.41
2022-12-29T19:16:29.558Z,97975.72
2022-12-29T19:19:08.841Z,97985.00
2022-12-29T19:21:37.171Z,97985.44
2022-12-29T19:24:04.668Z,97989.03
2022-12-29T19:26:36.226Z,97992.06
2022-12-29T19:29:03.762Z,97986.97
2022-12-29T19:31:30.551Z,97978.91
2022-12-29T19:33:57.263Z,97983.41
2022-12-29T19:36:24.148Z,97988.06
2022-12-29T19:38:50.942Z,97984.44
2022-12-29T19:41:17.626Z,97987.50
2022-12-29T19:43:44.512Z,97981.19
2022-12-29T19:46:15.998Z,97981.66
2022-12-29T19:48:42.702Z,97989.38
2022-12-29T19:51:12.229Z,97986.25
2022-12-29T19:53:38.948Z,97980.03
2022-12-29T19:56:08.300Z,97980.69
2022-12-29T19:58:36.466Z,97981.91
2022-12-29T20:01:12.157Z,97983.47
2022-12-29T20:03:39.670Z,97991.50
2022-12-29T20:06:07.773Z,97997.63
2022-12-29T20:08:35.706Z,97996.44
2022-12-29T20:15:02.769Z,98016.84
2022-12-29T20:18:12.461Z,98012.56
2022-12-29T20:20:34.525Z,98028.75
2022-12-29T20:23:01.147Z,98035.84
2022-12-29T20:25:46.753Z,98047.56
2022-12-29T20:29:00.221Z,98037.44
2022-12-29T20:31:33.587Z,98049.56
2022-12-29T20:34:00.438Z,98050.59
2022-12-29T20:36:31.501Z,98042.44
2022-12-29T20:39:01.340Z,98049.16
2022-12-29T20:41:53.179Z,98054.78
2022-12-29T20:44:20.197Z,98052.41
2022-12-29T20:46:46.875Z,98048.41
2022-12-29T20:49:13.943Z,98049.78
2022-12-29T20:54:38.678Z,98048.91
2022-12-29T20:57:06.426Z,98043.59
2022-12-29T20:59:33.178Z,98060.75
2022-12-29T21:01:59.953Z,98055.44
2022-12-29T21:04:27.386Z,98054.00
2022-12-29T21:06:55.075Z,98065.44
2022-12-29T21:09:22.052Z,98077.16
2022-12-29T21:11:57.032Z,98084.59
2022-12-29T21:14:24.004Z,98074.53
2022-12-29T21:16:50.949Z,98078.41
2022-12-29T21:19:19.422Z,98089.00
2022-12-29T21:21:46.486Z,98090.91
2022-12-29T21:24:13.951Z,98083.91
2022-12-29T21:26:40.967Z,98085.06
2022-12-29T21:29:08.021Z,98088.66
2022-12-29T21:31:36.677Z,98084.66
2022-12-29T21:34:05.755Z,98096.41
2022-12-29T21:36:33.296Z,98104.69
2022-12-29T21:39:03.647Z,98097.13
2022-12-29T21:41:31.571Z,98093.97
2022-12-29T21:44:17.515Z,98103.31
2022-12-29T21:46:46.967Z,98113.84
2022-12-29T21:49:28.701Z,98118.78
2022-12-29T21:51:57.719Z,98125.53
2022-12-29T21:54:48.345Z,98129.91
2022-12-29T21:57:38.002Z,98140.94
2022-12-29T22:03:45.577Z,98151.88
2022-12-29T22:06:31.051Z,98154.78
2022-12-29T22:09:25.028Z,98156.22
2022-12-29T22:12:10.872Z,98153.09
2022-12-29T22:14:37.843Z,98153.53
2022-12-29T22:17:06.386Z,98154.72
2022-12-29T22:19:35.258Z,98158.34
2022-12-29T22:22:16.321Z,98154.13
2022-12-29T22:24:43.760Z,98164.19
2022-12-29T22:27:11.343Z,98167.84
2022-12-29T22:29:38.783Z,98162.69
2022-12-29T22:32:35.612Z,98173.81
2022-12-29T22:35:07.792Z,98179.00
2022-12-29T22:37:36.977Z,98175.50
2022-12-29T22:40:06.193Z,98173.31
2022-12-29T22:42:33.838Z,98174.06
2022-12-29T22:45:02.011Z,98183.22
2022-12-29T22:47:29.368Z,98184.47
2022-12-29T22:49:56.404Z,98179.47
2022-12-29T22:52:23.486Z,98185.03
2022-12-29T22:54:50.659Z,98186.25
2022-12-29T22:57:17.794Z,98191.69
2022-12-29T22:59:44.874Z,98199.59
2022-12-29T23:02:12.052Z,98199.41
2022-12-29T23:07:27.346Z,98202.06
2022-12-29T23:09:54.385Z,98203.13
2022-12-29T23:12:39.429Z,98205.09
2022-12-29T23:15:07.157Z,98212.97
2022-12-29T23:17:33.825Z,98225.94
2022-12-29T23:20:00.399Z,98224.84
2022-12-29T23:22:27.054Z,98225.59
2022-12-29T23:24:53.577Z,98225.13
2022-12-29T23:27:20.142Z,98230.50
2022-12-29T23:29:46.724Z,98227.41
2022-12-29T23:32:13.483Z,98239.34
2022-12-29T23:34:40.041Z,98238.81
2022-12-29T23:37:06.598Z,98247.03
2022-12-29T23:39:39.454Z,98245.25
2022-12-29T23:42:06.097Z,98254.03
2022-12-29T23:44:32.809Z,98256.47
2022-12-29T23:46:59.524Z,98256.75
2022-12-29T23:49:26.152Z,98255.94
2022-12-29T23:51:52.806Z,98264.34
2022-12-29T23:54:19.395Z,98261.28
2022-12-29T23:56:45.973Z,98268.59
2022-12-29T23:59:12.631Z,98265.63
